sensor_id;sensor_type;location;lat;lon;timestamp;pressure;altitude;pressure_sealevel;temperature;humidity
39487;BME280;25173;50.430;18.926;2023-04-25T00:00:58;97137.06;;;13.94;67.65
39487;BME280;25173;50.430;18.926;2023-04-25T00:03:59;97132.88;;;13.88;68.15
39487;BME280;25173;50.430;18.926;2023-04-25T00:07:01;97126.91;;;13.86;67.78
39487;BME280;25173;50.430;18.926;2023-04-25T00:10:03;97139.31;;;13.75;68.05
39487;BME280;25173;50.430;18.926;2023-04-25T00:13:03;97138.78;;;13.55;69.07
39487;BME280;25173;50.430;18.926;2023-04-25T00:16:05;97139.09;;;13.54;68.71
39487;BME280;25173;50.430;18.926;2023-04-25T00:19:05;97133.44;;;13.50;68.66
39487;BME280;25173;50.430;18.926;2023-04-25T00:22:06;97134.22;;;13.42;69.09
39487;BME280;25173;50.430;18.926;2023-04-25T00:25:07;97136.63;;;13.35;69.21
39487;BME280;25173;50.430;18.926;2023-04-25T00:28:08;97135.31;;;13.24;69.86
39487;BME280;25173;50.430;18.926;2023-04-25T00:31:08;97134.00;;;13.21;69.57
39487;BME280;25173;50.430;18.926;2023-04-25T00:34:09;97134.97;;;13.17;70.16
39487;BME280;25173;50.430;18.926;2023-04-25T00:37:35;97128.19;;;13.14;71.70
39487;BME280;25173;50.430;18.926;2023-04-25T00:40:36;97135.06;;;13.12;69.88
39487;BME280;25173;50.430;18.926;2023-04-25T00:43:37;97143.91;;;13.09;69.73
39487;BME280;25173;50.430;18.926;2023-04-25T00:46:38;97139.06;;;13.06;70.09
39487;BME280;25173;50.430;18.926;2023-04-25T00:49:40;97138.09;;;13.02;70.19
39487;BME280;25173;50.430;18.926;2023-04-25T00:52:43;97139.69;;;13.03;70.25
39487;BME280;25173;50.430;18.926;2023-04-25T00:55:44;97141.94;;;13.01;70.13
39487;BME280;25173;50.430;18.926;2023-04-25T00:58:45;97145.13;;;12.94;70.52
39487;BME280;25173;50.430;18.926;2023-04-25T01:01:46;97139.81;;;12.89;70.41
39487;BME280;25173;50.430;18.926;2023-04-25T01:04:47;97144.56;;;12.83;70.80
39487;BME280;25173;50.430;18.926;2023-04-25T01:07:48;97140.88;;;12.79;70.49
39487;BME280;25173;50.430;18.926;2023-04-25T01:10:49;97144.97;;;12.68;70.98
39487;BME280;25173;50.430;18.926;2023-04-25T01:13:49;97141.75;;;12.66;70.69
39487;BME280;25173;50.430;18.926;2023-04-25T01:16:50;97142.00;;;12.56;71.06
39487;BME280;25173;50.430;18.926;2023-04-25T01:19:51;97149.22;;;12.52;71.10
39487;BME280;25173;50.430;18.926;2023-04-25T01:22:52;97148.41;;;12.52;71.10
39487;BME280;25173;50.430;18.926;2023-04-25T01:25:53;97152.56;;;12.49;71.18
39487;BME280;25173;50.430;18.926;2023-04-25T01:28:54;97152.88;;;12.48;71.66
39487;BME280;25173;50.430;18.926;2023-04-25T01:31:55;97157.28;;;12.57;71.16
39487;BME280;25173;50.430;18.926;2023-04-25T01:34:58;97152.19;;;12.64;70.84
39487;BME280;25173;50.430;18.926;2023-04-25T01:38:00;97153.31;;;12.63;70.95
39487;BME280;25173;50.430;18.926;2023-04-25T01:41:01;97156.41;;;12.70;70.74
39487;BME280;25173;50.430;18.926;2023-04-25T01:44:03;97162.06;;;12.74;70.73
39487;BME280;25173;50.430;18.926;2023-04-25T01:47:03;97163.47;;;12.71;70.46
39487;BME280;25173;50.430;18.926;2023-04-25T01:50:07;97155.72;;;12.65;70.53
39487;BME280;25173;50.430;18.926;2023-04-25T01:53:09;97160.00;;;12.57;70.74
39487;BME280;25173;50.430;18.926;2023-04-25T01:56:11;97158.19;;;12.53;70.97
39487;BME280;25173;50.430;18.926;2023-04-25T01:59:13;97161.88;;;12.48;70.77
39487;BME280;25173;50.430;18.926;2023-04-25T02:02:40;97170.81;;;12.40;70.78
39487;BME280;25173;50.430;18.926;2023-04-25T02:05:52;97166.75;;;12.37;70.64
39487;BME280;25173;50.430;18.926;2023-04-25T02:08:54;97174.72;;;12.25;70.72
39487;BME280;25173;50.430;18.926;2023-04-25T02:11:55;97172.16;;;12.07;71.28
39487;BME280;25173;50.430;18.926;2023-04-25T02:15:08;97169.25;;;11.89;71.82
39487;BME280;25173;50.430;18.926;2023-04-25T02:18:14;97179.41;;;11.75;72.38
39487;BME280;25173;50.430;18.926;2023-04-25T02:21:18;97171.38;;;11.65;72.33
39487;BME280;25173;50.430;18.926;2023-04-25T02:24:18;97180.28;;;11.57;72.55
39487;BME280;25173;50.430;18.926;2023-04-25T02:27:19;97174.94;;;11.52;72.83
39487;BME280;25173;50.430;18.926;2023-04-25T02:30:19;97176.16;;;11.46;73.03
39487;BME280;25173;50.430;18.926;2023-04-25T02:33:20;97175.25;;;11.50;72.86
39487;BME280;25173;50.430;18.926;2023-04-25T02:36:21;97180.50;;;11.60;72.65
39487;BME280;25173;50.430;18.926;2023-04-25T02:39:22;97189.38;;;11.66;73.07
39487;BME280;25173;50.430;18.926;2023-04-25T02:42:26;97189.47;;;11.61;73.20
39487;BME280;25173;50.430;18.926;2023-04-25T02:45:26;97187.34;;;11.58;72.71
39487;BME280;25173;50.430;18.926;2023-04-25T02:48:27;97190.59;;;11.60;72.46
39487;BME280;25173;50.430;18.926;2023-04-25T02:51:28;97192.22;;;11.61;72.47
39487;BME280;25173;50.430;18.926;2023-04-25T02:54:29;97181.91;;;11.58;72.18
39487;BME280;25173;50.430;18.926;2023-04-25T02:57:31;97185.34;;;11.50;72.23
39487;BME280;25173;50.430;18.926;2023-04-25T03:00:32;97186.66;;;11.39;72.04
39487;BME280;25173;50.430;18.926;2023-04-25T03:03:32;97182.44;;;11.33;71.81
39487;BME280;25173;50.430;18.926;2023-04-25T03:06:33;97181.22;;;11.25;72.04
39487;BME280;25173;50.430;18.926;2023-04-25T03:09:34;97185.75;;;11.16;72.19
39487;BME280;25173;50.430;18.926;2023-04-25T03:12:35;97185.63;;;11.07;72.12
39487;BME280;25173;50.430;18.926;2023-04-25T03:15:36;97180.28;;;11.02;71.98
39487;BME280;25173;50.430;18.926;2023-04-25T03:18:37;97186.94;;;10.96;72.30
39487;BME280;25173;50.430;18.926;2023-04-25T03:21:37;97172.91;;;10.89;72.04
39487;BME280;25173;50.430;18.926;2023-04-25T03:24:38;97179.25;;;10.84;72.11
39487;BME280;25173;50.430;18.926;2023-04-25T03:27:39;97173.28;;;10.82;72.04
39487;BME280;25173;50.430;18.926;2023-04-25T03:30:40;97181.09;;;10.89;71.28
39487;BME280;25173;50.430;18.926;2023-04-25T03:33:40;97188.25;;;10.99;71.34
39487;BME280;25173;50.430;18.926;2023-04-25T03:36:41;97190.66;;;11.00;71.01
39487;BME280;25173;50.430;18.926;2023-04-25T03:39:42;97189.34;;;10.98;70.83
39487;BME280;25173;50.430;18.926;2023-04-25T03:42:43;97194.41;;;11.04;70.67
39487;BME280;25173;50.430;18.926;2023-04-25T03:45:44;97202.56;;;11.04;70.70
39487;BME280;25173;50.430;18.926;2023-04-25T03:48:44;97210.25;;;11.02;70.98
39487;BME280;25173;50.430;18.926;2023-04-25T03:51:51;97202.09;;;11.02;70.50
39487;BME280;25173;50.430;18.926;2023-04-25T03:54:52;97212.38;;;11.05;71.04
39487;BME280;25173;50.430;18.926;2023-04-25T03:57:54;97204.94;;;11.11;70.63
39487;BME280;25173;50.430;18.926;2023-04-25T04:00:56;97208.66;;;11.15;70.20
39487;BME280;25173;50.430;18.926;2023-04-25T04:03:57;97205.13;;;11.14;70.42
39487;BME280;25173;50.430;18.926;2023-04-25T04:06:58;97203.19;;;11.15;70.59
39487;BME280;25173;50.430;18.926;2023-04-25T04:10:03;97211.28;;;11.20;70.55
39487;BME280;25173;50.430;18.926;2023-04-25T04:13:10;97213.00;;;11.16;70.38
39487;BME280;25173;50.430;18.926;2023-04-25T04:16:11;97208.88;;;11.18;70.05
39487;BME280;25173;50.430;18.926;2023-04-25T04:19:11;97213.28;;;11.14;70.16
39487;BME280;25173;50.430;18.926;2023-04-25T04:22:16;97217.75;;;11.10;70.10
39487;BME280;25173;50.430;18.926;2023-04-25T04:25:17;97213.09;;;11.11;70.13
39487;BME280;25173;50.430;18.926;2023-04-25T04:28:47;97224.28;;;11.09;70.05
39487;BME280;25173;50.430;18.926;2023-04-25T04:32:07;97218.44;;;11.02;69.93
39487;BME280;25173;50.430;18.926;2023-04-25T04:35:09;97223.06;;;11.02;70.30
39487;BME280;25173;50.430;18.926;2023-04-25T04:38:13;97214.91;;;11.02;70.02
39487;BME280;25173;50.430;18.926;2023-04-25T04:41:15;97228.13;;;11.08;69.94
39487;BME280;25173;50.430;18.926;2023-04-25T04:44:27;97227.44;;;11.16;69.82
39487;BME280;25173;50.430;18.926;2023-04-25T04:47:45;97233.81;;;11.25;69.45
39487;BME280;25173;50.430;18.926;2023-04-25T04:51:21;97231.91;;;11.26;68.84
39487;BME280;25173;50.430;18.926;2023-04-25T04:54:28;97230.97;;;11.31;68.82
39487;BME280;25173;50.430;18.926;2023-04-25T04:57:42;97242.88;;;11.35;68.55
39487;BME280;25173;50.430;18.926;2023-04-25T05:01:09;97239.06;;;11.36;68.48
39487;BME280;25173;50.430;18.926;2023-04-25T05:04:28;97240.09;;;11.40;68.25
39487;BME280;25173;50.430;18.926;2023-04-25T05:07:58;97233.31;;;11.37;67.53
39487;BME280;25173;50.430;18.926;2023-04-25T05:11:34;97236.22;;;11.27;67.15
39487;BME280;25173;50.430;18.926;2023-04-25T05:14:47;97231.44;;;11.19;67.37
39487;BME280;25173;50.430;18.926;2023-04-25T05:18:06;97234.00;;;11.15;67.37
39487;BME280;25173;50.430;18.926;2023-04-25T05:21:16;97235.00;;;11.19;66.96
39487;BME280;25173;50.430;18.926;2023-04-25T05:24:35;97236.31;;;11.22;67.18
39487;BME280;25173;50.430;18.926;2023-04-25T05:27:52;97235.41;;;11.26;67.11
39487;BME280;25173;50.430;18.926;2023-04-25T05:31:13;97242.41;;;11.33;66.71
39487;BME280;25173;50.430;18.926;2023-04-25T05:34:27;97238.66;;;11.42;66.71
39487;BME280;25173;50.430;18.926;2023-04-25T05:37:34;97240.50;;;11.47;66.61
39487;BME280;25173;50.430;18.926;2023-04-25T05:40:44;97242.00;;;11.53;66.39
39487;BME280;25173;50.430;18.926;2023-04-25T05:43:51;97244.91;;;11.43;65.42
39487;BME280;25173;50.430;18.926;2023-04-25T05:47:13;97247.34;;;11.31;66.01
39487;BME280;25173;50.430;18.926;2023-04-25T05:50:31;97247.34;;;11.31;65.97
39487;BME280;25173;50.430;18.926;2023-04-25T05:53:48;97250.97;;;11.26;66.36
39487;BME280;25173;50.430;18.926;2023-04-25T05:56:49;97248.84;;;11.37;66.18
39487;BME280;25173;50.430;18.926;2023-04-25T05:59:50;97245.59;;;11.35;65.82
39487;BME280;25173;50.430;18.926;2023-04-25T06:02:51;97247.44;;;11.39;65.88
39487;BME280;25173;50.430;18.926;2023-04-25T06:05:52;97255.34;;;11.41;65.78
39487;BME280;25173;50.430;18.926;2023-04-25T06:08:54;97247.16;;;11.41;65.73
39487;BME280;25173;50.430;18.926;2023-04-25T06:11:55;97247.56;;;11.48;65.64
39487;BME280;25173;50.430;18.926;2023-04-25T06:14:56;97252.41;;;11.51;65.24
39487;BME280;25173;50.430;18.926;2023-04-25T06:17:57;97250.38;;;11.43;65.15
39487;BME280;25173;50.430;18.926;2023-04-25T06:20:58;97248.97;;;11.45;65.32
39487;BME280;25173;50.430;18.926;2023-04-25T06:23:59;97258.47;;;11.48;65.20
39487;BME280;25173;50.430;18.926;2023-04-25T06:27:01;97261.78;;;11.45;64.83
39487;BME280;25173;50.430;18.926;2023-04-25T06:30:01;97253.59;;;11.45;65.29
39487;BME280;25173;50.430;18.926;2023-04-25T06:33:04;97257.44;;;11.57;65.16
39487;BME280;25173;50.430;18.926;2023-04-25T06:36:06;97256.34;;;11.72;64.78
39487;BME280;25173;50.430;18.926;2023-04-25T06:39:07;97247.69;;;11.84;64.76
39487;BME280;25173;50.430;18.926;2023-04-25T06:42:09;97248.78;;;11.83;64.45
39487;BME280;25173;50.430;18.926;2023-04-25T06:45:24;97263.75;;;11.99;64.55
39487;BME280;25173;50.430;18.926;2023-04-25T06:48:27;97249.25;;;12.12;63.65
39487;BME280;25173;50.430;18.926;2023-04-25T06:51:28;97256.44;;;12.22;63.55
39487;BME280;25173;50.430;18.926;2023-04-25T06:54:30;97257.63;;;12.29;63.27
39487;BME280;25173;50.430;18.926;2023-04-25T06:57:39;97252.13;;;12.43;63.30
39487;BME280;25173;50.430;18.926;2023-04-25T07:01:02;97256.78;;;12.42;62.44
39487;BME280;25173;50.430;18.926;2023-04-25T07:04:03;97260.19;;;12.48;62.61
39487;BME280;25173;50.430;18.926;2023-04-25T07:07:06;97245.28;;;12.54;62.34
39487;BME280;25173;50.430;18.926;2023-04-25T07:10:18;97256.13;;;12.59;62.25
39487;BME280;25173;50.430;18.926;2023-04-25T07:13:19;97256.50;;;12.66;62.08
39487;BME280;25173;50.430;18.926;2023-04-25T07:16:20;97258.97;;;12.76;61.65
39487;BME280;25173;50.430;18.926;2023-04-25T07:19:21;97261.56;;;12.59;61.25
39487;BME280;25173;50.430;18.926;2023-04-25T07:22:22;97257.22;;;12.58;61.29
39487;BME280;25173;50.430;18.926;2023-04-25T07:25:23;97256.13;;;12.45;61.00
39487;BME280;25173;50.430;18.926;2023-04-25T07:28:24;97266.25;;;12.45;61.60
39487;BME280;25173;50.430;18.926;2023-04-25T07:31:25;97261.94;;;12.44;61.33
39487;BME280;25173;50.430;18.926;2023-04-25T07:34:25;97261.19;;;12.52;61.49
39487;BME280;25173;50.430;18.926;2023-04-25T07:37:26;97268.22;;;12.67;60.54
39487;BME280;25173;50.430;18.926;2023-04-25T07:40:36;97257.25;;;12.80;60.54
39487;BME280;25173;50.430;18.926;2023-04-25T07:43:41;97258.22;;;12.84;59.80
39487;BME280;25173;50.430;18.926;2023-04-25T07:46:42;97255.50;;;12.84;59.57
39487;BME280;25173;50.430;18.926;2023-04-25T07:49:43;97257.78;;;12.91;59.92
39487;BME280;25173;50.430;18.926;2023-04-25T07:52:44;97262.63;;;12.94;59.25
39487;BME280;25173;50.430;18.926;2023-04-25T07:55:55;97259.78;;;12.99;59.37
39487;BME280;25173;50.430;18.926;2023-04-25T07:58:56;97263.19;;;13.05;59.42
39487;BME280;25173;50.430;18.926;2023-04-25T08:01:59;97270.47;;;13.09;58.97
39487;BME280;25173;50.430;18.926;2023-04-25T08:05:00;97260.34;;;13.10;58.67
39487;BME280;25173;50.430;18.926;2023-04-25T08:08:01;97258.06;;;13.12;58.28
39487;BME280;25173;50.430;18.926;2023-04-25T08:11:03;97252.56;;;13.26;58.27
39487;BME280;25173;50.430;18.926;2023-04-25T08:14:05;97254.91;;;13.41;57.64
39487;BME280;25173;50.430;18.926;2023-04-25T08:17:07;97271.34;;;13.49;57.72
39487;BME280;25173;50.430;18.926;2023-04-25T08:20:13;97263.84;;;13.64;57.08
39487;BME280;25173;50.430;18.926;2023-04-25T08:23:15;97263.84;;;13.64;55.97
39487;BME280;25173;50.430;18.926;2023-04-25T08:26:28;97262.38;;;13.57;55.79
39487;BME280;25173;50.430;18.926;2023-04-25T08:29:29;97264.13;;;13.53;55.64
39487;BME280;25173;50.430;18.926;2023-04-25T08:32:30;97263.22;;;13.67;55.75
39487;BME280;25173;50.430;18.926;2023-04-25T08:35:50;97262.59;;;13.78;55.01
39487;BME280;25173;50.430;18.926;2023-04-25T08:38:51;97267.31;;;13.78;54.41
39487;BME280;25173;50.430;18.926;2023-04-25T08:41:53;97264.09;;;13.84;54.41
39487;BME280;25173;50.430;18.926;2023-04-25T08:44:55;97261.84;;;13.95;54.17
39487;BME280;25173;50.430;18.926;2023-04-25T08:48:00;97253.03;;;13.98;53.27
39487;BME280;25173;50.430;18.926;2023-04-25T08:51:02;97258.38;;;14.12;53.24
39487;BME280;25173;50.430;18.926;2023-04-25T08:54:12;97266.44;;;14.25;52.92
39487;BME280;25173;50.430;18.926;2023-04-25T08:57:12;97264.03;;;14.32;49.90
39487;BME280;25173;50.430;18.926;2023-04-25T09:00:16;97270.50;;;14.36;52.20
39487;BME280;25173;50.430;18.926;2023-04-25T09:03:18;97265.38;;;14.44;51.43
39487;BME280;25173;50.430;18.926;2023-04-25T09:06:21;97265.06;;;14.54;51.51
39487;BME280;25173;50.430;18.926;2023-04-25T09:09:23;97262.66;;;14.78;51.61
39487;BME280;25173;50.430;18.926;2023-04-25T09:12:24;97262.66;;;14.87;51.05
39487;BME280;25173;50.430;18.926;2023-04-25T09:15:26;97263.09;;;14.97;50.89
39487;BME280;25173;50.430;18.926;2023-04-25T09:18:54;97255.78;;;15.27;50.89
39487;BME280;25173;50.430;18.926;2023-04-25T09:21:57;97262.69;;;15.42;49.74
39487;BME280;25173;50.430;18.926;2023-04-25T09:25:02;97264.81;;;15.36;48.94
39487;BME280;25173;50.430;18.926;2023-04-25T09:28:05;97265.59;;;15.45;49.56
39487;BME280;25173;50.430;18.926;2023-04-25T09:31:06;97264.78;;;15.62;49.29
39487;BME280;25173;50.430;18.926;2023-04-25T09:34:19;97262.88;;;15.54;48.58
39487;BME280;25173;50.430;18.926;2023-04-25T09:37:29;97260.47;;;15.27;47.57
39487;BME280;25173;50.430;18.926;2023-04-25T09:40:43;97266.97;;;15.13;48.15
39487;BME280;25173;50.430;18.926;2023-04-25T09:43:51;97263.91;;;15.06;48.23
39487;BME280;25173;50.430;18.926;2023-04-25T09:46:53;97268.56;;;15.06;48.09
39487;BME280;25173;50.430;18.926;2023-04-25T09:49:55;97267.25;;;15.21;47.98
39487;BME280;25173;50.430;18.926;2023-04-25T09:53:05;97257.94;;;15.04;47.50
39487;BME280;25173;50.430;18.926;2023-04-25T09:56:31;97255.78;;;15.27;48.06
39487;BME280;25173;50.430;18.926;2023-04-25T09:59:45;97269.88;;;15.17;46.65
39487;BME280;25173;50.430;18.926;2023-04-25T10:02:46;97261.97;;;15.07;46.82
39487;BME280;25173;50.430;18.926;2023-04-25T10:06:24;97261.97;;;15.07;46.18
39487;BME280;25173;50.430;18.926;2023-04-25T10:09:28;97267.13;;;15.17;46.55
39487;BME280;25173;50.430;18.926;2023-04-25T10:12:34;97272.59;;;15.26;45.62
39487;BME280;25173;50.430;18.926;2023-04-25T10:15:35;97250.59;;;15.34;45.89
39487;BME280;25173;50.430;18.926;2023-04-25T10:18:39;97285.00;;;15.32;45.76
39487;BME280;25173;50.430;18.926;2023-04-25T10:21:46;97254.84;;;15.23;45.19
39487;BME280;25173;50.430;18.926;2023-04-25T10:24:49;97259.19;;;15.24;45.50
39487;BME280;25173;50.430;18.926;2023-04-25T10:27:51;97259.66;;;15.35;45.14
39487;BME280;25173;50.430;18.926;2023-04-25T10:31:03;97257.56;;;15.32;43.47
39487;BME280;25173;50.430;18.926;2023-04-25T10:34:04;97257.41;;;15.28;44.56
39487;BME280;25173;50.430;18.926;2023-04-25T10:37:08;97254.34;;;15.30;45.24
39487;BME280;25173;50.430;18.926;2023-04-25T10:40:10;97254.00;;;15.40;45.03
39487;BME280;25173;50.430;18.926;2023-04-25T10:43:34;97247.19;;;15.55;43.80
39487;BME280;25173;50.430;18.926;2023-04-25T10:46:35;97248.47;;;15.57;45.08
39487;BME280;25173;50.430;18.926;2023-04-25T10:49:38;97252.66;;;15.63;44.68
39487;BME280;25173;50.430;18.926;2023-04-25T10:52:42;97247.63;;;15.65;44.71
39487;BME280;25173;50.430;18.926;2023-04-25T10:55:51;97245.97;;;15.73;44.13
39487;BME280;25173;50.430;18.926;2023-04-25T10:58:52;97256.50;;;15.71;44.43
39487;BME280;25173;50.430;18.926;2023-04-25T11:02:11;97255.88;;;15.65;43.13
39487;BME280;25173;50.430;18.926;2023-04-25T11:05:20;97253.16;;;15.48;43.65
39487;BME280;25173;50.430;18.926;2023-04-25T11:08:37;97253.31;;;15.43;42.84
39487;BME280;25173;50.430;18.926;2023-04-25T11:11:53;97243.69;;;15.20;42.80
39487;BME280;25173;50.430;18.926;2023-04-25T11:15:05;97250.38;;;15.01;43.50
39487;BME280;25173;50.430;18.926;2023-04-25T11:18:06;97261.34;;;15.01;43.89
39487;BME280;25173;50.430;18.926;2023-04-25T11:21:06;97254.88;;;15.06;44.42
39487;BME280;25173;50.430;18.926;2023-04-25T11:24:07;97257.91;;;15.22;44.66
39487;BME280;25173;50.430;18.926;2023-04-25T11:27:08;97262.38;;;15.35;44.57
39487;BME280;25173;50.430;18.926;2023-04-25T11:30:15;97260.81;;;15.34;43.43
39487;BME280;25173;50.430;18.926;2023-04-25T11:33:16;97254.84;;;15.14;43.82
39487;BME280;25173;50.430;18.926;2023-04-25T11:36:17;97271.13;;;15.20;44.32
39487;BME280;25173;50.430;18.926;2023-04-25T11:39:19;97256.97;;;15.18;43.81
39487;BME280;25173;50.430;18.926;2023-04-25T11:42:19;97268.56;;;15.14;43.83
39487;BME280;25173;50.430;18.926;2023-04-25T11:45:20;97272.13;;;15.06;43.35
39487;BME280;25173;50.430;18.926;2023-04-25T11:48:22;97262.59;;;15.12;44.00
39487;BME280;25173;50.430;18.926;2023-04-25T11:51:23;97269.88;;;15.17;43.34
39487;BME280;25173;50.430;18.926;2023-04-25T11:54:24;97267.44;;;15.15;43.76
39487;BME280;25173;50.430;18.926;2023-04-25T11:57:24;97266.00;;;15.09;44.33
39487;BME280;25173;50.430;18.926;2023-04-25T12:00:25;97271.44;;;15.35;44.26
39487;BME280;25173;50.430;18.926;2023-04-25T12:03:29;97267.22;;;15.46;43.66
39487;BME280;25173;50.430;18.926;2023-04-25T12:06:31;97272.09;;;15.32;43.07
39487;BME280;25173;50.430;18.926;2023-04-25T12:09:33;97264.19;;;15.22;43.38
39487;BME280;25173;50.430;18.926;2023-04-25T12:12:35;97264.53;;;15.21;43.57
39487;BME280;25173;50.430;18.926;2023-04-25T12:15:35;97269.25;;;15.11;43.69
39487;BME280;25173;50.430;18.926;2023-04-25T12:18:37;97259.53;;;15.05;43.87
39487;BME280;25173;50.430;18.926;2023-04-25T12:21:37;97257.28;;;15.07;43.99
39487;BME280;25173;50.430;18.926;2023-04-25T12:24:38;97259.84;;;15.12;43.99
39487;BME280;25173;50.430;18.926;2023-04-25T12:27:39;97261.47;;;15.13;43.84
39487;BME280;25173;50.430;18.926;2023-04-25T12:30:55;97263.41;;;15.04;43.46
39487;BME280;25173;50.430;18.926;2023-04-25T12:33:56;97264.88;;;15.02;43.96
39487;BME280;25173;50.430;18.926;2023-04-25T12:36:57;97259.09;;;14.95;44.37
39487;BME280;25173;50.430;18.926;2023-04-25T12:39:57;97261.19;;;14.89;44.51
39487;BME280;25173;50.430;18.926;2023-04-25T12:42:58;97265.88;;;14.89;44.40
39487;BME280;25173;50.430;18.926;2023-04-25T12:45:59;97258.91;;;14.91;44.07
39487;BME280;25173;50.430;18.926;2023-04-25T12:49:00;97258.59;;;15.01;44.80
39487;BME280;25173;50.430;18.926;2023-04-25T12:52:00;97260.00;;;15.25;44.37
39487;BME280;25173;50.430;18.926;2023-04-25T12:55:01;97257.66;;;15.61;44.37
39487;BME280;25173;50.430;18.926;2023-04-25T12:58:01;97261.94;;;15.79;43.75
39487;BME280;25173;50.430;18.926;2023-04-25T13:01:03;97262.88;;;15.92;43.85
39487;BME280;25173;50.430;18.926;2023-04-25T13:04:04;97257.56;;;15.78;43.59
39487;BME280;25173;50.430;18.926;2023-04-25T13:07:04;97258.75;;;15.77;44.00
39487;BME280;25173;50.430;18.926;2023-04-25T13:10:06;97247.81;;;15.51;43.45
39487;BME280;25173;50.430;18.926;2023-04-25T13:13:07;97261.97;;;15.15;43.69
39487;BME280;25173;50.430;18.926;2023-04-25T13:16:08;97254.88;;;14.97;44.24
39487;BME280;25173;50.430;18.926;2023-04-25T13:19:09;97254.75;;;14.85;44.43
39487;BME280;25173;50.430;18.926;2023-04-25T13:22:11;97258.78;;;14.70;44.84
39487;BME280;25173;50.430;18.926;2023-04-25T13:25:12;97258.63;;;14.67;44.59
39487;BME280;25173;50.430;18.926;2023-04-25T13:28:13;97255.06;;;14.58;44.97
39487;BME280;25173;50.430;18.926;2023-04-25T13:31:14;97254.75;;;14.51;44.96
39487;BME280;25173;50.430;18.926;2023-04-25T13:34:14;97259.25;;;14.47;45.34
39487;BME280;25173;50.430;18.926;2023-04-25T13:37:15;97259.06;;;14.34;45.27
39487;BME280;25173;50.430;18.926;2023-04-25T13:40:15;97255.16;;;14.27;45.50
39487;BME280;25173;50.430;18.926;2023-04-25T13:43:16;97261.78;;;14.34;45.70
39487;BME280;25173;50.430;18.926;2023-04-25T13:46:17;97252.81;;;14.51;45.88
39487;BME280;25173;50.430;18.926;2023-04-25T13:49:18;97253.47;;;14.74;45.57
39487;BME280;25173;50.430;18.926;2023-04-25T13:52:18;97257.16;;;14.95;45.52
39487;BME280;25173;50.430;18.926;2023-04-25T13:55:19;97270.00;;;15.12;45.13
39487;BME280;25173;50.430;18.926;2023-04-25T13:58:19;97266.31;;;15.25;45.00
39487;BME280;25173;50.430;18.926;2023-04-25T14:01:20;97263.19;;;15.35;44.34
39487;BME280;25173;50.430;18.926;2023-04-25T14:04:21;97269.19;;;15.29;44.50
39487;BME280;25173;50.430;18.926;2023-04-25T14:07:22;97263.69;;;15.29;44.81
39487;BME280;25173;50.430;18.926;2023-04-25T14:10:23;97266.94;;;15.31;44.59
39487;BME280;25173;50.430;18.926;2023-04-25T14:13:23;97265.78;;;15.40;44.82
39487;BME280;25173;50.430;18.926;2023-04-25T14:16:24;97267.22;;;15.55;44.56
39487;BME280;25173;50.430;18.926;2023-04-25T14:19:25;97265.91;;;15.44;44.61
39487;BME280;25173;50.430;18.926;2023-04-25T14:22:25;97266.88;;;15.48;44.89
39487;BME280;25173;50.430;18.926;2023-04-25T14:25:27;97271.94;;;15.29;44.59
39487;BME280;25173;50.430;18.926;2023-04-25T14:28:28;97265.81;;;15.14;44.92
39487;BME280;25173;50.430;18.926;2023-04-25T14:31:29;97274.34;;;15.39;45.62
39487;BME280;25173;50.430;18.926;2023-04-25T14:34:29;97271.53;;;15.65;45.33
39487;BME280;25173;50.430;18.926;2023-04-25T14:37:30;97282.91;;;15.93;44.99
39487;BME280;25173;50.430;18.926;2023-04-25T14:40:31;97267.00;;;16.07;44.63
39487;BME280;25173;50.430;18.926;2023-04-25T14:43:31;97283.88;;;16.17;44.63
39487;BME280;25173;50.430;18.926;2023-04-25T14:46:32;97267.09;;;16.40;44.52
39487;BME280;25173;50.430;18.926;2023-04-25T14:49:33;97273.22;;;16.16;43.33
39487;BME280;25173;50.430;18.926;2023-04-25T14:52:34;97271.44;;;15.90;44.11
39487;BME280;25173;50.430;18.926;2023-04-25T14:55:34;97268.19;;;15.88;43.93
39487;BME280;25173;50.430;18.926;2023-04-25T14:58:35;97276.75;;;15.87;44.05
39487;BME280;25173;50.430;18.926;2023-04-25T15:01:35;97271.31;;;15.78;43.80
39487;BME280;25173;50.430;18.926;2023-04-25T15:04:36;97271.00;;;15.71;43.87
39487;BME280;25173;50.430;18.926;2023-04-25T15:07:37;97269.72;;;15.77;43.68
39487;BME280;25173;50.430;18.926;2023-04-25T15:10:39;97281.94;;;15.88;43.68
39487;BME280;25173;50.430;18.926;2023-04-25T15:13:40;97280.63;;;15.86;42.76
39487;BME280;25173;50.430;18.926;2023-04-25T15:16:40;97274.31;;;15.94;43.38
39487;BME280;25173;50.430;18.926;2023-04-25T15:19:41;97273.41;;;16.40;43.15
39487;BME280;25173;50.430;18.926;2023-04-25T15:22:43;97273.72;;;16.89;42.55
39487;BME280;25173;50.430;18.926;2023-04-25T15:25:44;97276.13;;;17.11;41.45
39487;BME280;25173;50.430;18.926;2023-04-25T15:28:45;97279.59;;;16.99;41.16
39487;BME280;25173;50.430;18.926;2023-04-25T15:31:46;97282.72;;;16.77;41.29
39487;BME280;25173;50.430;18.926;2023-04-25T15:34:47;97284.28;;;16.37;40.69
39487;BME280;25173;50.430;18.926;2023-04-25T15:37:47;97282.69;;;15.98;41.11
39487;BME280;25173;50.430;18.926;2023-04-25T15:40:48;97283.84;;;15.97;41.66
39487;BME280;25173;50.430;18.926;2023-04-25T15:43:48;97284.50;;;16.52;41.95
39487;BME280;25173;50.430;18.926;2023-04-25T15:46:49;97288.22;;;17.31;41.12
39487;BME280;25173;50.430;18.926;2023-04-25T15:49:50;97276.66;;;17.37;40.18
39487;BME280;25173;50.430;18.926;2023-04-25T15:52:50;97280.53;;;17.36;40.23
39487;BME280;25173;50.430;18.926;2023-04-25T15:55:51;97284.78;;;17.01;39.29
39487;BME280;25173;50.430;18.926;2023-04-25T15:58:52;97282.25;;;16.46;40.05
39487;BME280;25173;50.430;18.926;2023-04-25T16:01:54;97284.56;;;16.14;40.95